createdAt,value
2022-08-18T06:39:02.702Z,79.88
2022-08-18T06:40:02.779Z,80.12
2022-08-18T06:41:02.689Z,80.68
2022-08-18T06:42:02.760Z,80.58
2022-08-18T06:43:02.601Z,79.88
2022-08-18T06:44:04.743Z,79.99
2022-08-18T06:45:02.724Z,80.29
2022-08-18T06:46:02.553Z,80.08
2022-08-18T06:47:02.524Z,79.79
2022-08-18T06:48:02.493Z,79.79
2022-08-18T06:49:02.546Z,79.49
2022-08-18T06:50:02.446Z,79.45
2022-08-18T06:51:02.416Z,79.05
2022-08-18T06:52:02.473Z,79.25
2022-08-18T06:53:02.397Z,79.05
2022-08-18T06:54:02.401Z,79.05
2022-08-18T06:55:02.386Z,79.45
2022-08-18T06:56:02.403Z,80.24
2022-08-18T06:57:02.358Z,79.65
2022-08-18T06:58:02.345Z,80.05
2022-08-18T06:59:02.340Z,81.80
2022-08-18T07:00:02.313Z,82.29
2022-08-18T07:01:02.504Z,82.29
2022-08-18T07:02:02.378Z,82.40
2022-08-18T07:03:02.288Z,82.50
2022-08-18T07:04:02.303Z,83.29
2022-08-18T07:05:02.374Z,83.39
2022-08-18T07:06:02.255Z,83.29
2022-08-18T07:07:02.249Z,83.25
2022-08-18T07:08:02.255Z,82.95
2022-08-18T07:09:02.236Z,82.26
2022-08-18T07:10:02.250Z,82.16
2022-08-18T07:11:02.196Z,81.86
2022-08-18T07:12:02.210Z,81.32
2022-08-18T07:13:02.180Z,81.32
2022-08-18T07:14:16.043Z,81.82
2022-08-18T07:15:03.186Z,81.72
2022-08-18T07:16:02.153Z,75.99
2022-08-18T07:17:02.135Z,76.55
2022-08-18T07:18:02.146Z,75.85
2022-08-18T07:19:02.152Z,76.68
2022-08-18T07:20:02.099Z,76.35
2022-08-18T07:21:02.147Z,75.65
2022-08-18T07:22:02.092Z,75.65
2022-08-18T07:23:02.066Z,75.36
2022-08-18T07:24:23.893Z,77.34
2022-08-18T07:25:05.341Z,77.21
2022-08-18T07:26:02.051Z,77.11
2022-08-18T07:27:02.061Z,76.55
2022-08-18T07:28:02.018Z,77.45
2022-08-18T07:29:02.018Z,77.58
2022-08-18T07:30:02.003Z,78.44
2022-08-18T07:31:16.457Z,78.04
2022-08-18T07:32:03.017Z,78.94
2022-08-18T07:33:01.983Z,79.33
2022-08-18T07:34:01.957Z,79.33
2022-08-18T07:35:01.944Z,79.39
2022-08-18T07:36:01.945Z,80.09
2022-08-18T07:37:01.932Z,79.46
2022-08-18T07:38:18.788Z,79.42
2022-08-18T07:39:02.906Z,79.12
2022-08-18T07:40:01.972Z,79.12
2022-08-18T07:41:01.889Z,79.42
2022-08-18T07:42:01.872Z,78.88
2022-08-18T07:43:02.462Z,78.29
2022-08-18T07:44:01.901Z,78.39
2022-08-18T07:45:01.849Z,74.72
2022-08-18T07:46:01.836Z,74.95
2022-08-18T07:47:01.838Z,76.14
2022-08-18T07:48:15.686Z,75.29
2022-08-18T07:49:05.363Z,76.21
2022-08-18T07:50:23.048Z,76.08
2022-08-18T07:51:06.637Z,76.57
2022-08-18T07:52:02.771Z,75.74
2022-08-18T07:53:01.755Z,75.84
2022-08-18T07:54:01.753Z,75.91
2022-08-18T07:55:01.752Z,75.71
2022-08-18T07:56:01.755Z,75.65
2022-08-18T07:57:01.720Z,75.74
2022-08-18T07:58:01.709Z,75.51
2022-08-18T07:59:01.714Z,75.21
2022-08-18T08:00:01.692Z,75.51
2022-08-18T08:01:01.798Z,74.91
2022-08-18T08:02:01.724Z,74.82
2022-08-18T08:03:01.650Z,75.61
2022-08-18T08:04:01.646Z,74.72
2022-08-18T08:05:01.672Z,76.01
2022-08-18T08:06:01.626Z,74.12
2022-08-18T08:07:23.519Z,74.55
2022-08-18T08:08:02.604Z,75.05
2022-08-18T08:09:01.604Z,75.55
2022-08-18T08:10:01.589Z,75.74
2022-08-18T08:11:01.584Z,75.41
2022-08-18T08:12:01.572Z,77.10
2022-08-18T08:13:08.855Z,75.71
2022-08-18T08:14:02.540Z,76.37
2022-08-18T08:15:01.534Z,75.04
2022-08-18T08:16:01.541Z,74.55
2022-08-18T08:17:01.517Z,73.75
2022-08-18T08:18:01.505Z,73.82
2022-08-18T08:19:01.496Z,74.71
2022-08-18T08:20:02.352Z,72.92
2022-08-18T08:21:01.480Z,72.63
2022-08-18T08:22:01.474Z,72.49
2022-08-18T08:23:01.462Z,72.79
2022-08-18T08:24:01.447Z,72.39
2022-08-18T08:25:01.458Z,72.69
2022-08-18T08:26:01.415Z,72.79
2022-08-18T08:27:01.406Z,74.08
2022-08-18T08:28:01.402Z,72.89
2022-08-18T08:29:01.407Z,72.49
2022-08-18T08:30:01.397Z,72.09
2022-08-18T08:31:13.815Z,72.60
2022-08-18T08:32:02.359Z,71.47
2022-08-18T08:33:01.981Z,70.87
2022-08-18T08:34:05.690Z,70.84
2022-08-18T08:35:01.590Z,70.71
2022-08-18T08:36:01.373Z,70.61
2022-08-18T08:37:01.309Z,69.62
2022-08-18T08:38:22.997Z,70.12
2022-08-18T08:39:04.320Z,70.64
2022-08-18T08:40:02.656Z,69.65
2022-08-18T08:41:01.381Z,70.45
2022-08-18T08:42:30.977Z,71.47
2022-08-18T08:43:02.430Z,71.17
2022-08-18T08:44:01.254Z,70.84
2022-08-18T08:45:01.408Z,69.92
2022-08-18T08:46:01.241Z,69.75
2022-08-18T08:47:01.230Z,69.69
2022-08-18T08:48:08.562Z,69.49
2022-08-18T08:49:02.180Z,70.78
2022-08-18T08:50:01.291Z,69.39
2022-08-18T08:51:01.210Z,69.46
2022-08-18T08:52:01.160Z,71.00
2022-08-18T08:53:01.149Z,67.54
2022-08-18T08:54:01.202Z,68.60
2022-08-18T08:55:01.139Z,67.58
2022-08-18T08:56:02.615Z,65.77
2022-08-18T08:57:01.098Z,66.99
2022-08-18T08:58:01.084Z,66.09
2022-08-18T08:59:01.091Z,66.03
2022-08-18T09:00:01.073Z,66.13
2022-08-18T09:01:01.086Z,67.15
2022-08-18T09:02:01.157Z,66.66
2022-08-18T09:03:01.043Z,65.70
2022-08-18T09:04:01.026Z,65.83
2022-08-18T09:05:08.679Z,65.93
2022-08-18T09:06:02.020Z,65.01
2022-08-18T09:07:01.007Z,66.09
2022-08-18T09:08:00.998Z,64.72
2022-08-18T09:09:00.974Z,66.23
2022-08-18T09:10:00.969Z,64.42
2022-08-18T09:11:00.963Z,64.65
2022-08-18T09:12:00.976Z,65.83
2022-08-18T09:13:00.933Z,64.65
2022-08-18T09:14:00.941Z,64.81
2022-08-18T09:15:00.914Z,64.56
2022-08-18T09:16:00.904Z,63.37
2022-08-18T09:17:01.906Z,63.18
2022-08-18T09:18:00.885Z,62.32
2022-08-18T09:19:00.890Z,61.50
2022-08-18T09:20:00.885Z,62.38
2022-08-18T09:21:00.860Z,62.68
2022-08-18T09:22:00.845Z,62.23
2022-08-18T09:23:00.838Z,60.29
2022-08-18T09:24:00.835Z,60.46
2022-08-18T09:25:00.834Z,59.86
2022-08-18T09:26:00.816Z,59.96
2022-08-18T09:27:00.800Z,60.65
2022-08-18T09:28:10.968Z,60.16
2022-08-18T09:29:01.780Z,59.25
2022-08-18T09:30:00.790Z,60.42
2022-08-18T09:31:00.773Z,59.81
2022-08-18T09:32:00.777Z,59.71
2022-08-18T09:33:00.742Z,59.78
2022-08-18T09:34:06.673Z,58.99
2022-08-18T09:35:01.722Z,57.22
2022-08-18T09:36:00.701Z,57.45
2022-08-18T09:37:00.714Z,58.20
2022-08-18T09:38:00.704Z,56.41
2022-08-18T09:39:00.678Z,57.78
2022-08-18T09:40:11.000Z,56.41
2022-08-18T09:41:03.296Z,57.39
2022-08-18T09:42:00.644Z,56.31
2022-08-18T09:43:02.180Z,56.99
2022-08-18T09:44:00.625Z,57.20
2022-08-18T09:45:00.621Z,55.52
2022-08-18T09:46:00.886Z,55.62
2022-08-18T09:47:00.599Z,56.43
2022-08-18T09:48:00.594Z,58.14
2022-08-18T09:49:00.587Z,58.39
2022-08-18T09:50:01.775Z,58.39
2022-08-18T09:51:00.553Z,58.29
2022-08-18T09:52:00.551Z,57.97
2022-08-18T09:53:02.228Z,56.27
2022-08-18T09:54:00.520Z,56.66
2022-08-18T09:55:00.534Z,58.33
2022-08-18T09:56:04.849Z,57.57
2022-08-18T09:57:00.487Z,58.36
2022-08-18T09:58:00.476Z,57.70
2022-08-18T09:59:00.479Z,57.77
2022-08-18T10:00:00.491Z,57.97
2022-08-18T10:01:00.478Z,58.23
2022-08-18T10:02:00.432Z,57.45
2022-08-18T10:03:00.423Z,57.18
2022-08-18T10:04:00.420Z,57.87
2022-08-18T10:05:00.400Z,57.57
2022-08-18T10:06:01.145Z,58.00
2022-08-18T10:07:00.378Z,58.09
2022-08-18T10:08:00.380Z,58.32
2022-08-18T10:09:00.366Z,59.08
2022-08-18T10:10:00.836Z,56.91
2022-08-18T10:11:08.985Z,58.00
2022-08-18T10:12:01.334Z,57.70
2022-08-18T10:13:00.324Z,58.09
2022-08-18T10:14:00.321Z,56.59
2022-08-18T10:15:00.302Z,55.08
2022-08-18T10:16:10.252Z,54.47
2022-08-18T10:17:22.540Z,53.98
2022-08-18T10:18:01.283Z,54.57
2022-08-18T10:19:00.254Z,55.49
2022-08-18T10:20:00.270Z,54.41
2022-08-18T10:21:00.237Z,53.31
2022-08-18T10:22:00.231Z,52.72
2022-08-18T10:23:00.219Z,53.58
2022-08-18T10:24:31.594Z,52.82
2022-08-18T10:25:20.781Z,53.19
2022-08-18T10:26:04.373Z,52.89
2022-08-18T10:27:00.172Z,53.06
2022-08-18T10:28:00.175Z,53.16
2022-08-18T10:29:00.166Z,51.66
2022-08-18T10:30:00.165Z,53.43
2022-08-18T10:31:06.596Z,52.06
2022-08-18T10:32:01.139Z,51.69
2022-08-18T10:33:00.431Z,51.89
2022-08-18T10:34:00.121Z,52.08
2022-08-18T10:35:00.089Z,51.39
2022-08-18T10:36:00.216Z,51.32
2022-08-18T10:37:00.076Z,52.01
2022-08-18T10:38:00.076Z,52.40
2022-08-18T10:39:00.065Z,51.03
2022-08-18T10:40:00.106Z,51.42
2022-08-18T10:41:00.030Z,51.52
2022-08-18T10:42:01.033Z,51.39
2022-08-18T10:43:00.010Z,50.81
2022-08-18T10:44:00.060Z,50.39
2022-08-18T10:45:00.001Z,51.00
2022-08-18T10:46:24.215Z,51.29
2022-08-18T10:47:00.986Z,51.17
2022-08-18T10:47:59.961Z,51.79
2022-08-18T10:48:59.948Z,51.56
2022-08-18T10:49:59.953Z,51.86
2022-08-18T10:50:59.928Z,51.10
2022-08-18T10:52:01.104Z,53.06
2022-08-18T10:53:24.340Z,52.08
2022-08-18T10:54:00.974Z,52.50
2022-08-18T10:54:59.885Z,52.69
2022-08-18T10:56:01.298Z,52.11
2022-08-18T10:57:08.815Z,53.06
2022-08-18T10:58:07.494Z,51.69
2022-08-18T10:59:15.971Z,52.20
2022-08-18T11:00:00.845Z,51.81
2022-08-18T11:00:59.920Z,52.86
2022-08-18T11:01:59.830Z,52.76
2022-08-18T11:03:29.975Z,51.98
2022-08-18T11:04:01.255Z,51.49
2022-08-18T11:05:00.834Z,50.88
2022-08-18T11:05:59.868Z,50.78
2022-08-18T11:06:59.872Z,50.29
2022-08-18T11:08:00.495Z,52.03
2022-08-18T11:08:59.751Z,50.78
2022-08-18T11:10:28.080Z,50.39
2022-08-18T11:11:33.139Z,51.27
2022-08-18T11:12:01.277Z,51.44
2022-08-18T11:12:59.966Z,51.12
2022-08-18T11:13:59.699Z,49.85
2022-08-18T11:14:59.693Z,50.07
2022-08-18T11:15:59.674Z,51.17
2022-08-18T11:16:59.662Z,51.51
2022-08-18T11:17:59.674Z,50.73
2022-08-18T11:18:59.655Z,51.71
2022-08-18T11:19:59.631Z,50.42
2022-08-18T11:20:59.643Z,49.04
2022-08-18T11:21:59.614Z,50.22
2022-08-18T11:22:59.603Z,51.22
2022-08-18T11:23:59.628Z,50.63
2022-08-18T11:24:59.596Z,50.54
2022-08-18T11:25:59.579Z,50.63
2022-08-18T11:26:59.585Z,51.00
2022-08-18T11:27:59.558Z,50.02
2022-08-18T11:28:59.578Z,50.15
2022-08-18T11:29:59.569Z,51.10
2022-08-18T11:30:59.528Z,49.82
2022-08-18T11:32:01.925Z,51.32
2022-08-18T11:32:59.993Z,52.67
2022-08-18T11:33:59.505Z,51.27
2022-08-18T11:34:59.496Z,50.59
2022-08-18T11:36:01.150Z,50.88
2022-08-18T11:36:59.567Z,51.59
2022-08-18T11:37:59.914Z,51.00
2022-08-18T11:38:59.454Z,52.67
2022-08-18T11:39:59.531Z,53.64
2022-08-18T11:42:00.456Z,49.85
2022-08-18T11:42:59.418Z,51.83
2022-08-18T11:43:59.390Z,51.73
2022-08-18T11:44:59.385Z,52.69
2022-08-18T11:45:59.402Z,51.49
2022-08-18T11:46:59.367Z,49.85
2022-08-18T11:47:59.362Z,50.63
2022-08-18T11:48:59.539Z,50.61
2022-08-18T11:49:59.336Z,49.92
2022-08-18T11:50:59.323Z,50.02
2022-08-18T11:52:03.209Z,53.12
2022-08-18T11:52:59.302Z,53.00
2022-08-18T11:54:00.083Z,52.22
2022-08-18T11:54:59.279Z,51.73
2022-08-18T11:55:59.282Z,49.68
2022-08-18T11:56:59.269Z,50.56
2022-08-18T11:58:00.265Z,49.87
2022-08-18T11:58:59.243Z,49.51
2022-08-18T12:00:00.995Z,49.92
2022-08-18T12:01:01.444Z,49.85
2022-08-18T12:01:59.222Z,50.81
2022-08-18T12:02:59.209Z,51.56
2022-08-18T12:03:59.193Z,49.92
2022-08-18T12:04:59.180Z,51.20
2022-08-18T12:05:59.187Z,49.82
2022-08-18T12:06:59.183Z,51.00
2022-08-18T12:08:01.637Z,50.71
2022-08-18T12:09:00.138Z,50.51
2022-08-18T12:10:17.837Z,51.39
2022-08-18T12:11:00.126Z,49.92
2022-08-18T12:11:59.181Z,49.73
2022-08-18T12:12:59.190Z,50.81
2022-08-18T12:13:59.093Z,50.59
2022-08-18T12:15:07.979Z,50.42
2022-08-18T12:16:00.081Z,51.20
2022-08-18T12:16:59.654Z,52.86
2022-08-18T12:17:59.067Z,51.61
2022-08-18T12:18:59.055Z,52.98
2022-08-18T12:19:59.033Z,53.28
2022-08-18T12:20:59.378Z,53.25
2022-08-18T12:21:59.030Z,52.00
2022-08-18T12:22:58.998Z,52.89
2022-08-18T12:23:59.006Z,53.50
2022-08-18T12:24:58.986Z,54.77
2022-08-18T12:25:58.977Z,53.01
2022-08-18T12:26:58.958Z,53.11
2022-08-18T12:27:58.947Z,54.77
2022-08-18T12:29:01.616Z,52.79
2022-08-18T12:29:58.943Z,51.81
2022-08-18T12:30:58.920Z,53.18
2022-08-18T12:31:58.918Z,52.47
2022-08-18T12:33:05.391Z,51.78
2022-08-18T12:34:01.005Z,51.68
2022-08-18T12:35:05.163Z,51.10
2022-08-18T12:35:59.885Z,51.29
2022-08-18T12:36:58.870Z,52.34
2022-08-18T12:38:59.846Z,51.29
2022-08-18T12:39:58.897Z,51.12
2022-08-18T12:40:58.828Z,52.91
2022-08-18T12:41:59.534Z,51.93
2022-08-18T12:42:58.808Z,51.83
2022-08-18T12:43:59.898Z,52.72
2022-08-18T12:44:58.788Z,51.61
2022-08-18T12:45:58.767Z,51.71
2022-08-18T12:46:59.856Z,51.10
2022-08-18T12:47:58.772Z,51.49
2022-08-18T12:48:58.749Z,50.61
2022-08-18T12:49:58.741Z,51.88
2022-08-18T12:50:59.805Z,50.61
2022-08-18T12:51:58.724Z,50.61
2022-08-18T12:52:58.717Z,50.61
2022-08-18T12:53:59.869Z,50.78
2022-08-18T12:54:58.686Z,49.99
2022-08-18T12:55:58.673Z,48.85
2022-08-18T12:56:58.669Z,51.20
2022-08-18T12:57:58.651Z,49.24
2022-08-18T12:58:58.654Z,49.24
2022-08-18T12:59:58.640Z,49.82
2022-08-18T13:00:58.628Z,50.81
2022-08-18T13:01:59.804Z,50.29
2022-08-18T13:02:58.612Z,49.21
2022-08-18T13:04:10.716Z,50.02
2022-08-18T13:04:59.588Z,49.92
2022-08-18T13:05:58.594Z,49.92
2022-08-18T13:06:59.876Z,50.12
2022-08-18T13:07:58.561Z,49.24
2022-08-18T13:08:58.550Z,49.33
2022-08-18T13:09:58.567Z,49.16
2022-08-18T13:10:58.521Z,49.16
2022-08-18T13:12:00.120Z,48.70
2022-08-18T13:12:58.504Z,49.48
2022-08-18T13:13:58.494Z,49.99
2022-08-18T13:14:58.533Z,50.78
2022-08-18T13:16:03.350Z,50.51
2022-08-18T13:16:59.471Z,51.66
2022-08-18T13:17:58.473Z,51.05
2022-08-18T13:18:58.454Z,50.27
2022-08-18T13:19:58.443Z,51.34
2022-08-18T13:20:58.743Z,51.73
2022-08-18T13:21:58.422Z,51.15
2022-08-18T13:22:58.411Z,50.56
2022-08-18T13:23:58.410Z,51.34
2022-08-18T13:24:58.384Z,52.03
2022-08-18T13:25:59.298Z,51.51
2022-08-18T13:26:58.383Z,51.32
2022-08-18T13:27:58.356Z,50.90
2022-08-18T13:28:58.631Z,50.54
2022-08-18T13:29:58.352Z,50.32
2022-08-18T13:30:58.428Z,50.90
2022-08-18T13:31:58.322Z,50.90
2022-08-18T13:33:02.242Z,49.90
2022-08-18T13:34:00.043Z,50.88
2022-08-18T13:34:58.290Z,50.20
2022-08-18T13:35:58.291Z,48.72
2022-08-18T13:36:58.265Z,49.33
2022-08-18T13:37:58.285Z,48.94
2022-08-18T13:38:58.251Z,49.92
2022-08-18T13:39:58.269Z,49.82
2022-08-18T13:40:58.233Z,50.42
2022-08-18T13:42:00.671Z,51.86
2022-08-18T13:42:58.392Z,49.02
2022-08-18T13:43:58.204Z,50.27
2022-08-18T13:44:58.187Z,48.97
2022-08-18T13:45:59.174Z,47.70
2022-08-18T13:46:58.170Z,47.89
2022-08-18T13:47:58.363Z,47.60
2022-08-18T13:48:58.177Z,49.26
2022-08-18T13:49:59.346Z,48.41
2022-08-18T13:50:58.130Z,48.41
2022-08-18T13:51:58.122Z,49.29
2022-08-18T13:52:58.490Z,48.02
2022-08-18T13:54:18.402Z,48.38
2022-08-18T13:54:59.099Z,48.97
2022-08-18T13:55:58.563Z,49.29
2022-08-18T13:56:58.072Z,49.29
2022-08-18T13:57:58.061Z,49.38
2022-08-18T13:58:58.045Z,48.92
2022-08-18T13:59:58.052Z,49.02
2022-08-18T14:01:29.823Z,50.39
2022-08-18T14:02:05.746Z,50.68
2022-08-18T14:03:05.647Z,48.33
2022-08-18T14:03:58.188Z,49.51
2022-08-18T14:04:58.078Z,49.99
2022-08-18T14:06:01.561Z,48.99
2022-08-18T14:06:59.162Z,49.19
2022-08-18T14:07:57.961Z,50.07
2022-08-18T14:08:57.993Z,49.97
2022-08-18T14:09:57.944Z,51.05
2022-08-18T14:10:57.950Z,50.24
2022-08-18T14:11:57.936Z,48.97
2022-08-18T14:12:57.904Z,49.97
2022-08-18T14:13:57.900Z,51.05
2022-08-18T14:14:57.885Z,48.90
2022-08-18T14:15:57.881Z,49.80
2022-08-18T14:16:57.889Z,49.87
2022-08-18T14:17:57.866Z,50.29
2022-08-18T14:18:57.844Z,50.88
2022-08-18T14:19:57.835Z,51.27
2022-08-18T14:20:57.843Z,50.39
2022-08-18T14:21:57.845Z,51.17
2022-08-18T14:22:57.825Z,50.20
2022-08-18T14:23:57.803Z,50.59
2022-08-18T14:24:57.792Z,50.02
2022-08-18T14:25:57.773Z,50.10
2022-08-18T14:26:57.772Z,49.02
2022-08-18T14:27:57.780Z,49.80
2022-08-18T14:28:57.772Z,50.29
2022-08-18T14:29:57.733Z,50.71
2022-08-18T14:30:57.723Z,50.22
2022-08-18T14:31:57.722Z,50.39
2022-08-18T14:32:58.217Z,51.27
2022-08-18T14:34:03.052Z,51.27
2022-08-18T14:35:00.221Z,49.58
2022-08-18T14:36:06.121Z,49.29
2022-08-18T14:36:58.669Z,49.41
2022-08-18T14:37:57.662Z,49.02
2022-08-18T14:38:57.713Z,50.20
2022-08-18T14:39:57.693Z,49.51
2022-08-18T14:40:57.632Z,48.92
2022-08-18T14:41:57.659Z,50.20
2022-08-18T14:42:57.620Z,50.56
2022-08-18T14:44:12.666Z,50.29
2022-08-18T14:45:17.023Z,50.20
2022-08-18T14:45:58.562Z,51.10
2022-08-18T14:46:57.546Z,51.20
2022-08-18T14:47:57.760Z,51.78
2022-08-18T14:48:58.986Z,51.81
2022-08-18T14:49:57.527Z,52.86
2022-08-18T14:50:58.350Z,52.30
2022-08-18T14:51:58.166Z,52.76
2022-08-18T14:52:57.486Z,53.38
2022-08-18T14:53:57.475Z,52.59
2022-08-18T14:54:57.469Z,52.56
2022-08-18T14:56:00.899Z,52.86
2022-08-18T14:56:57.456Z,54.82
2022-08-18T14:57:59.309Z,53.81
2022-08-18T14:58:57.429Z,53.91
2022-08-18T14:59:57.458Z,52.93
2022-08-18T15:00:57.465Z,52.93
2022-08-18T15:01:57.394Z,52.67
2022-08-18T15:02:57.413Z,52.76
2022-08-18T15:03:57.396Z,52.98
2022-08-18T15:04:58.056Z,52.50
2022-08-18T15:06:06.460Z,52.96
2022-08-18T15:07:04.983Z,53.45
2022-08-18T15:07:58.426Z,52.67
2022-08-18T15:08:57.402Z,53.16
2022-08-18T15:10:14.529Z,51.98
2022-08-18T15:10:58.339Z,52.98
2022-08-18T15:11:57.310Z,53.47
2022-08-18T15:12:57.284Z,53.86
2022-08-18T15:13:57.284Z,52.98
2022-08-18T15:14:57.266Z,53.38
2022-08-18T15:16:02.144Z,54.25
2022-08-18T15:16:58.374Z,53.38
2022-08-18T15:17:57.235Z,53.40
2022-08-18T15:18:57.229Z,53.50
2022-08-18T15:19:58.990Z,53.40
2022-08-18T15:20:57.217Z,53.89
2022-08-18T15:21:57.187Z,54.11
2022-08-18T15:22:57.190Z,53.69
2022-08-18T15:23:57.517Z,53.38
2022-08-18T15:24:57.168Z,54.94
2022-08-18T15:25:57.160Z,54.55
2022-08-18T15:27:05.451Z,53.18
2022-08-18T15:27:58.142Z,53.18
2022-08-18T15:29:00.218Z,53.38
2022-08-18T15:29:57.159Z,52.59
2022-08-18T15:32:02.323Z,52.91
2022-08-18T15:32:58.091Z,54.09
2022-08-18T15:33:57.618Z,54.28
2022-08-18T15:34:57.069Z,55.36
2022-08-18T15:35:57.051Z,53.59
2022-08-18T15:36:57.045Z,53.30
2022-08-18T15:37:57.191Z,54.11
2022-08-18T15:38:57.044Z,53.53
2022-08-18T15:39:57.068Z,53.63
2022-08-18T15:40:57.316Z,53.43
2022-08-18T15:41:57.001Z,53.63
2022-08-18T15:42:56.999Z,54.11
2022-08-18T15:43:56.991Z,54.19
2022-08-18T15:44:56.974Z,54.41
2022-08-18T15:45:57.930Z,54.41
2022-08-18T15:46:56.958Z,54.14
2022-08-18T15:47:56.964Z,53.65
2022-08-18T15:48:56.929Z,53.94
2022-08-18T15:49:56.934Z,53.85
2022-08-18T15:51:06.209Z,54.17
2022-08-18T15:51:57.904Z,54.85
2022-08-18T15:52:56.904Z,54.33
2022-08-18T15:53:57.861Z,55.44
2022-08-18T15:55:02.179Z,54.56
2022-08-18T15:55:57.864Z,54.66
2022-08-18T15:57:00.028Z,54.95
2022-08-18T15:57:57.950Z,54.75
2022-08-18T15:58:56.870Z,54.10
2022-08-18T15:59:56.848Z,54.17
2022-08-18T16:00:58.924Z,54.68
2022-08-18T16:01:56.834Z,54.46
2022-08-18T16:02:56.806Z,55.18
2022-08-18T16:03:56.912Z,54.56
2022-08-18T16:04:56.786Z,54.56
2022-08-18T16:05:56.874Z,54.85
2022-08-18T16:06:57.235Z,55.93
2022-08-18T16:07:57.121Z,54.36
2022-08-18T16:08:58.376Z,55.74
2022-08-18T16:09:58.343Z,55.93
2022-08-18T16:10:56.743Z,56.26
2022-08-18T16:12:00.152Z,57.53
2022-08-18T16:12:56.753Z,56.16
2022-08-18T16:13:56.712Z,55.96
2022-08-18T16:14:58.158Z,57.63
2022-08-18T16:15:59.671Z,56.26
2022-08-18T16:17:00.210Z,55.89
2022-08-18T16:17:56.648Z,56.09
2022-08-18T16:18:56.666Z,56.09
2022-08-18T16:19:56.639Z,56.18
2022-08-18T16:20:56.921Z,56.31
2022-08-18T16:21:56.780Z,58.18
2022-08-18T16:22:56.594Z,57.36
2022-08-18T16:23:56.586Z,56.09
2022-08-18T16:24:56.618Z,57.17
2022-08-18T16:25:56.611Z,57.36
2022-08-18T16:26:56.570Z,56.31
2022-08-18T16:27:56.561Z,56.90
2022-08-18T16:28:58.312Z,56.31
2022-08-18T16:29:56.637Z,57.59
2022-08-18T16:30:56.523Z,57.49
2022-08-18T16:31:56.510Z,57.39
2022-08-18T16:32:56.513Z,58.28
2022-08-18T16:33:56.667Z,58.18
2022-08-18T16:34:56.511Z,57.88
2022-08-18T16:35:56.500Z,58.99
2022-08-18T16:36:56.449Z,59.75
2022-08-18T16:37:56.460Z,59.78
2022-08-18T16:38:58.360Z,58.20
2022-08-18T16:39:56.479Z,57.81
2022-08-18T16:40:56.451Z,57.32
2022-08-18T16:41:56.399Z,58.50
2022-08-18T16:42:56.397Z,57.45
2022-08-18T16:43:56.418Z,57.94
2022-08-18T16:44:56.374Z,57.35
2022-08-18T16:45:56.370Z,57.22
2022-08-18T16:46:56.354Z,57.32
2022-08-18T16:47:56.340Z,56.16
2022-08-18T16:48:56.333Z,57.35
2022-08-18T16:49:58.577Z,57.15
2022-08-18T16:50:56.307Z,57.25
2022-08-18T16:51:56.310Z,56.34
2022-08-18T16:52:56.300Z,56.46
2022-08-18T16:53:56.285Z,56.37
2022-08-18T16:54:57.739Z,56.16
2022-08-18T16:55:56.261Z,56.37
2022-08-18T16:56:56.269Z,56.43
2022-08-18T16:57:56.255Z,56.46
2022-08-18T16:58:56.233Z,56.76
2022-08-18T16:59:56.226Z,56.27
2022-08-18T17:00:56.214Z,55.97
2022-08-18T17:01:56.304Z,55.28
2022-08-18T17:02:56.208Z,55.97
2022-08-18T17:03:56.197Z,56.37
2022-08-18T17:04:56.181Z,55.77
2022-08-18T17:05:56.166Z,55.08
2022-08-18T17:06:56.155Z,55.08
2022-08-18T17:07:56.158Z,54.49
2022-08-18T17:08:56.126Z,54.30
2022-08-18T17:09:56.132Z,54.79
2022-08-18T17:10:56.106Z,54.79
2022-08-18T17:11:56.104Z,54.30
2022-08-18T17:12:56.101Z,53.51
2022-08-18T17:13:56.089Z,52.82
2022-08-18T17:14:56.063Z,52.62
2022-08-18T17:15:56.069Z,53.22
2022-08-18T17:16:56.054Z,52.14
2022-08-18T17:17:56.043Z,51.45
2022-08-18T17:18:56.031Z,52.92
2022-08-18T17:19:56.032Z,52.23
2022-08-18T17:20:56.003Z,52.23
2022-08-18T17:21:56.005Z,51.76
2022-08-18T17:22:55.991Z,51.64
2022-08-18T17:23:56.002Z,52.26
2022-08-18T17:24:55.973Z,52.03
2022-08-18T17:25:55.950Z,52.82
2022-08-18T17:26:55.940Z,53.93
2022-08-18T17:27:56.037Z,55.31
2022-08-18T17:28:55.931Z,56.02
2022-08-18T17:29:56.279Z,56.22
2022-08-18T17:30:55.922Z,56.32
2022-08-18T17:31:55.916Z,56.74
2022-08-18T17:32:55.956Z,56.67
2022-08-18T17:33:55.897Z,57.46
2022-08-18T17:34:55.866Z,57.49
2022-08-18T17:35:55.872Z,57.88
2022-08-18T17:36:55.882Z,57.78
2022-08-18T17:37:55.861Z,58.28
2022-08-18T17:38:55.829Z,58.08
2022-08-18T17:39:55.890Z,58.50
2022-08-18T17:40:56.190Z,58.40
2022-08-18T17:41:55.789Z,58.20
2022-08-18T17:42:55.787Z,58.89
2022-08-18T17:43:55.798Z,59.42
2022-08-18T17:44:55.771Z,58.60
2022-08-18T17:45:55.746Z,59.42
2022-08-18T17:46:55.767Z,59.81
2022-08-18T17:47:55.729Z,60.01
2022-08-18T17:48:55.728Z,59.94
2022-08-18T17:50:27.517Z,60.53
2022-08-18T17:50:58.898Z,60.04
2022-08-18T17:51:55.694Z,60.43
2022-08-18T17:52:55.695Z,60.24
2022-08-18T17:53:55.673Z,60.53
2022-08-18T17:55:55.656Z,60.56
2022-08-18T17:56:55.652Z,60.86
2022-08-18T17:57:58.755Z,61.05
2022-08-18T17:58:56.458Z,61.05
2022-08-18T17:59:55.630Z,61.05
2022-08-18T18:00:55.603Z,61.85
2022-08-18T18:01:58.527Z,62.04
2022-08-18T18:02:55.576Z,62.17
2022-08-18T18:03:55.583Z,62.04
2022-08-18T18:04:55.555Z,62.24
2022-08-18T18:05:55.589Z,61.88
2022-08-18T18:06:56.386Z,62.37
2022-08-18T18:07:55.681Z,63.36
2022-08-18T18:08:55.538Z,63.56
2022-08-18T18:09:55.502Z,63.65
2022-08-18T18:11:04.316Z,63.68
2022-08-18T18:11:56.490Z,63.98
2022-08-18T18:12:55.743Z,64.18
2022-08-18T18:13:55.462Z,64.38
2022-08-18T18:14:55.462Z,64.28
2022-08-18T18:15:55.453Z,64.78
2022-08-18T18:16:55.428Z,64.78
2022-08-18T18:17:55.441Z,65.17
2022-08-18T18:18:55.429Z,65.80
2022-08-18T18:19:55.406Z,65.80
2022-08-18T18:20:55.392Z,66.22
2022-08-18T18:22:01.941Z,67.11
2022-08-18T18:22:56.387Z,66.91
2022-08-18T18:23:59.203Z,67.21
2022-08-18T18:24:55.350Z,67.84
2022-08-18T18:25:55.338Z,67.64
2022-08-18T18:26:55.319Z,68.33
2022-08-18T18:27:55.356Z,68.46
2022-08-18T18:28:55.323Z,68.76
2022-08-18T18:29:55.289Z,68.96
2022-08-18T18:30:55.297Z,69.20
2022-08-18T18:31:58.232Z,69.89
2022-08-18T18:32:59.090Z,69.59
2022-08-18T18:33:55.249Z,69.98
2022-08-18T18:34:55.254Z,70.62
2022-08-18T18:35:55.239Z,70.32
2022-08-18T18:36:55.254Z,70.22
2022-08-18T18:37:55.217Z,70.81
2022-08-18T18:38:55.212Z,70.32
2022-08-18T18:39:55.253Z,70.32
2022-08-18T18:40:55.183Z,70.51
2022-08-18T18:41:55.182Z,70.91
2022-08-18T18:42:55.187Z,70.72
2022-08-18T18:43:55.167Z,71.04
2022-08-18T18:44:55.145Z,71.04
2022-08-18T18:45:55.141Z,70.95
2022-08-18T18:47:01.500Z,71.41
2022-08-18T18:47:56.136Z,70.95
2022-08-18T18:48:55.101Z,71.44
2022-08-18T18:49:55.099Z,71.64
2022-08-18T18:50:55.880Z,71.44
2022-08-18T18:51:55.084Z,71.14
2022-08-18T18:52:55.084Z,71.34
2022-08-18T18:53:55.055Z,71.44
2022-08-18T18:54:55.030Z,71.74
2022-08-18T18:55:55.034Z,71.34
2022-08-18T18:56:55.009Z,71.54
2022-08-18T18:57:55.006Z,72.14
2022-08-18T18:58:55.007Z,71.74
2022-08-18T18:59:54.992Z,72.24
2022-08-18T19:00:55.987Z,72.33
2022-08-18T19:01:54.974Z,72.53
2022-08-18T19:02:54.951Z,72.33
2022-08-18T19:03:54.948Z,72.83
2022-08-18T19:04:54.939Z,72.67
2022-08-18T19:05:54.918Z,72.47
2022-08-18T19:06:54.913Z,72.97
2022-08-18T19:07:54.916Z,72.77
2022-08-18T19:08:54.895Z,73.16
2022-08-18T19:09:54.883Z,73.46
2022-08-18T19:10:54.871Z,73.36
2022-08-18T19:11:54.855Z,73.36
2022-08-18T19:12:54.844Z,73.66
2022-08-18T19:13:55.176Z,73.96
2022-08-18T19:15:03.558Z,74.39
2022-08-18T19:18:15.531Z,75.72
2022-08-18T19:19:35.904Z,76.87
2022-08-18T19:20:16.530Z,77.31
2022-08-18T19:22:03.800Z,77.01
2022-08-18T19:22:18.912Z,76.72
2022-08-18T19:23:15.449Z,77.84
2022-08-18T19:24:16.389Z,78.48
2022-08-18T19:25:15.410Z,79.33
2022-08-18T19:26:15.370Z,78.97
2022-08-18T19:27:15.374Z,79.73
2022-08-18T19:28:15.385Z,79.08
2022-08-18T19:29:15.337Z,79.37
2022-08-18T19:30:15.332Z,80.57
2022-08-18T19:31:15.315Z,79.97
2022-08-18T19:32:16.732Z,80.21
2022-08-18T19:33:15.306Z,80.00
2022-08-18T19:34:16.300Z,79.81
2022-08-18T19:35:15.284Z,80.00
2022-08-18T19:36:19.469Z,79.51
2022-08-18T19:37:22.661Z,79.71